createdAt,value
2022-10-11T00:01:01.261Z,11.70
2022-10-11T00:03:29.557Z,11.70
2022-10-11T00:05:58.918Z,11.60
2022-10-11T00:08:27.048Z,11.60
2022-10-11T00:10:59.699Z,11.50
2022-10-11T00:13:29.619Z,11.40
2022-10-11T00:15:58.533Z,11.50
2022-10-11T00:18:26.774Z,11.40
2022-10-11T00:21:03.128Z,11.30
2022-10-11T00:23:31.525Z,11.30
2022-10-11T00:26:01.012Z,11.20
2022-10-11T00:28:31.174Z,11.20
2022-10-11T00:30:59.570Z,11.20
2022-10-11T00:33:27.720Z,11.20
2022-10-11T00:35:55.917Z,11.10
2022-10-11T00:38:24.130Z,11.10
2022-10-11T00:40:52.315Z,11.10
2022-10-11T00:43:23.517Z,11.10
2022-10-11T00:46:04.308Z,11.10
2022-10-11T00:48:39.435Z,11.10
2022-10-11T00:51:17.732Z,11.10
2022-10-11T00:53:48.711Z,11.10
2022-10-11T00:56:21.704Z,11.00
2022-10-11T00:58:50.192Z,10.90
2022-10-11T01:01:19.703Z,10.80
2022-10-11T01:03:48.428Z,10.80
2022-10-11T01:06:16.660Z,10.80
2022-10-11T01:08:45.516Z,10.80
2022-10-11T01:11:17.752Z,10.90
2022-10-11T01:14:04.164Z,10.90
2022-10-11T01:16:38.382Z,10.90
2022-10-11T01:19:16.512Z,10.90
2022-10-11T01:21:49.840Z,10.90
2022-10-11T01:24:42.775Z,10.80
2022-10-11T01:27:41.552Z,10.70
2022-10-11T01:30:25.979Z,10.60
2022-10-11T01:33:06.454Z,10.60
2022-10-11T01:35:41.827Z,10.60
2022-10-11T01:38:14.788Z,10.60
2022-10-11T01:40:47.974Z,10.60
2022-10-11T01:43:17.791Z,10.60
2022-10-11T01:45:50.958Z,10.60
2022-10-11T01:48:19.607Z,10.60
2022-10-11T01:50:49.808Z,10.60
2022-10-11T01:53:41.433Z,10.60
2022-10-11T01:56:23.619Z,10.50
2022-10-11T01:59:11.682Z,10.50
2022-10-11T02:01:51.300Z,10.50
2022-10-11T02:04:30.147Z,10.50
2022-10-11T02:07:02.284Z,10.40
2022-10-11T02:09:34.907Z,10.40
2022-10-11T02:12:21.251Z,10.40
2022-10-11T02:14:52.553Z,10.40
2022-10-11T02:17:26.375Z,10.30
2022-10-11T02:19:57.871Z,10.30
2022-10-11T02:22:30.536Z,10.20
2022-10-11T02:25:03.370Z,10.30
2022-10-11T02:27:36.095Z,10.20
2022-10-11T02:30:07.921Z,10.20
2022-10-11T02:32:41.961Z,10.20
2022-10-11T02:35:11.862Z,10.20
2022-10-11T02:37:44.439Z,10.10
2022-10-11T02:40:18.017Z,10.10
2022-10-11T02:42:49.696Z,10.10
2022-10-11T02:45:20.938Z,10.20
2022-10-11T02:47:50.892Z,10.20
2022-10-11T02:50:19.319Z,10.20
2022-10-11T02:52:47.447Z,10.10
2022-10-11T02:55:15.465Z,10.00
2022-10-11T02:57:43.801Z,10.00
2022-10-11T03:00:13.531Z,9.90
2022-10-11T03:02:41.586Z,9.90
2022-10-11T03:05:11.533Z,9.90
2022-10-11T03:07:39.675Z,9.90
2022-10-11T03:10:08.624Z,9.90
2022-10-11T03:12:36.776Z,9.90
2022-10-11T03:15:06.017Z,9.90
2022-10-11T03:17:36.945Z,9.90
2022-10-11T03:20:11.372Z,9.90
2022-10-11T03:22:40.956Z,9.90
2022-10-11T03:25:09.852Z,9.90
2022-10-11T03:27:38.872Z,9.90
2022-10-11T03:30:08.837Z,9.90
2022-10-11T03:32:36.931Z,9.80
2022-10-11T03:35:07.484Z,9.80
2022-10-11T03:37:35.596Z,9.80
2022-10-11T03:40:06.001Z,9.80
2022-10-11T03:42:34.112Z,9.70
2022-10-11T03:45:04.957Z,9.70
2022-10-11T03:47:33.328Z,9.60
2022-10-11T03:50:01.429Z,9.60
2022-10-11T03:52:29.563Z,9.60
2022-10-11T03:54:57.976Z,9.70
2022-10-11T03:57:27.754Z,9.70
2022-10-11T03:59:55.834Z,9.70
2022-10-11T04:02:25.344Z,9.70
2022-10-11T04:04:53.406Z,9.60
2022-10-11T04:07:21.905Z,9.70
2022-10-11T04:09:50.006Z,9.60
2022-10-11T04:12:18.542Z,9.60
2022-10-11T04:14:48.059Z,9.50
2022-10-11T04:17:16.801Z,9.60
2022-10-11T04:19:45.237Z,9.60
2022-10-11T04:22:13.352Z,9.60
2022-10-11T04:24:41.420Z,9.60
2022-10-11T04:27:09.453Z,9.60
2022-10-11T04:29:38.024Z,9.60
2022-10-11T04:32:07.573Z,9.60
2022-10-11T04:34:35.633Z,9.60
2022-10-11T04:37:03.703Z,9.60
2022-10-11T04:39:37.310Z,9.60
2022-10-11T04:42:05.869Z,9.60
2022-10-11T04:44:33.904Z,9.50
2022-10-11T04:47:02.234Z,9.50
2022-10-11T04:49:31.703Z,9.40
2022-10-11T04:51:59.772Z,9.40
2022-10-11T04:54:28.304Z,9.40
2022-10-11T04:56:56.405Z,9.40
2022-10-11T04:59:24.857Z,9.50
2022-10-11T05:01:53.569Z,9.50
2022-10-11T05:04:21.693Z,9.40
2022-10-11T05:06:51.200Z,9.40
2022-10-11T05:09:19.268Z,9.40
2022-10-11T05:11:47.754Z,9.40
2022-10-11T05:14:16.127Z,9.30
2022-10-11T05:16:44.255Z,9.20
2022-10-11T05:19:12.830Z,9.20
2022-10-11T05:21:41.019Z,9.10
2022-10-11T05:24:16.824Z,9.10
2022-10-11T05:26:44.975Z,9.10
2022-10-11T05:29:13.446Z,9.10
2022-10-11T05:31:41.625Z,9.20
2022-10-11T05:34:09.700Z,9.20
2022-10-11T05:36:37.792Z,9.20
2022-10-11T05:39:06.406Z,9.20
2022-10-11T05:41:35.982Z,9.20
2022-10-11T05:44:04.108Z,9.20
2022-10-11T05:46:32.256Z,9.20
2022-10-11T05:49:00.412Z,9.30
2022-10-11T05:51:28.688Z,9.30
2022-10-11T05:53:56.873Z,9.20
2022-10-11T05:56:27.135Z,9.20
2022-10-11T05:59:02.016Z,9.10
2022-10-11T06:01:31.131Z,9.20
2022-10-11T06:03:59.336Z,9.20
2022-10-11T06:06:27.915Z,9.10
2022-10-11T06:08:57.382Z,9.10
2022-10-11T06:11:28.416Z,9.10
2022-10-11T06:13:59.177Z,9.10
2022-10-11T06:16:28.088Z,9.10
2022-10-11T06:18:56.741Z,9.10
2022-10-11T06:21:25.079Z,9.10
2022-10-11T06:24:00.937Z,9.10
2022-10-11T06:26:30.706Z,9.10
2022-10-11T06:29:00.528Z,9.20
2022-10-11T06:31:29.243Z,9.20
2022-10-11T06:33:59.755Z,9.20
2022-10-11T06:36:27.914Z,9.20
2022-10-11T06:38:56.219Z,9.20
2022-10-11T06:41:26.557Z,9.20
2022-10-11T06:43:54.749Z,9.30
2022-10-11T06:46:26.366Z,9.30
2022-10-11T06:48:56.385Z,9.30
2022-10-11T06:51:26.192Z,9.40
2022-10-11T06:53:56.842Z,9.40
2022-10-11T06:56:26.088Z,9.40
2022-10-11T06:58:55.410Z,9.50
2022-10-11T07:01:25.101Z,9.60
2022-10-11T07:03:54.831Z,9.60
2022-10-11T07:06:24.576Z,9.60
2022-10-11T07:08:52.806Z,9.70
2022-10-11T07:11:24.660Z,9.70
2022-10-11T07:13:54.877Z,9.80
2022-10-11T07:16:25.488Z,9.90
2022-10-11T07:18:59.820Z,10.00
2022-10-11T07:21:35.489Z,10.00
2022-10-11T07:24:04.064Z,10.10
2022-10-11T07:26:38.764Z,10.10
2022-10-11T07:29:09.309Z,10.10
2022-10-11T07:31:42.221Z,10.20
2022-10-11T07:34:11.557Z,10.20
2022-10-11T07:36:39.852Z,10.30
2022-10-11T07:39:08.811Z,10.40
2022-10-11T07:41:45.428Z,10.40
2022-10-11T07:44:14.676Z,10.50
2022-10-11T07:46:44.245Z,10.60
2022-10-11T07:49:12.340Z,10.70
2022-10-11T07:51:40.506Z,10.80
2022-10-11T07:54:08.974Z,10.80
2022-10-11T07:56:40.032Z,10.90
2022-10-11T07:59:08.455Z,10.90
2022-10-11T08:01:37.024Z,11.10
2022-10-11T08:04:06.913Z,11.10
2022-10-11T08:06:36.649Z,11.20
2022-10-11T08:09:05.660Z,11.40
2022-10-11T08:11:35.862Z,11.40
2022-10-11T08:14:08.882Z,11.40
2022-10-11T08:16:37.386Z,11.50
2022-10-11T08:19:07.275Z,11.60
2022-10-11T08:21:36.056Z,11.70
2022-10-11T08:24:05.856Z,11.70
2022-10-11T08:26:35.194Z,11.80
2022-10-11T08:29:04.042Z,11.90
2022-10-11T08:31:32.847Z,12.00
2022-10-11T08:34:01.215Z,12.10
2022-10-11T08:36:30.827Z,12.10
2022-10-11T08:38:59.694Z,12.20
2022-10-11T08:41:39.096Z,12.30
2022-10-11T08:44:51.753Z,12.40
2022-10-11T08:47:27.352Z,12.50
2022-10-11T08:49:56.229Z,12.70
2022-10-11T08:52:29.146Z,12.80
2022-10-11T08:55:02.485Z,13.00
2022-10-11T08:57:33.281Z,13.40
2022-10-11T09:00:05.610Z,13.70
2022-10-11T09:03:07.137Z,14.00
2022-10-11T09:05:36.705Z,14.40
2022-10-11T09:08:18.092Z,14.90
2022-10-11T09:10:59.554Z,15.40
2022-10-11T09:13:43.934Z,15.90
2022-10-11T09:16:20.407Z,16.50
2022-10-11T09:19:05.403Z,17.00
2022-10-11T09:21:42.083Z,17.40
2022-10-11T09:24:38.430Z,17.80
2022-10-11T09:27:18.085Z,18.20
2022-10-11T09:29:58.508Z,18.60
2022-10-11T09:32:33.413Z,18.80
2022-10-11T09:35:11.980Z,19.00
2022-10-11T09:37:48.351Z,18.80
2022-10-11T09:40:32.175Z,18.40
2022-10-11T09:43:00.472Z,18.30
2022-10-11T09:45:28.613Z,18.50
2022-10-11T09:48:00.772Z,18.70
2022-10-11T09:50:30.730Z,19.10
2022-10-11T09:53:00.950Z,19.50
2022-10-11T09:55:39.429Z,19.90
2022-10-11T09:58:30.172Z,20.20
2022-10-11T10:01:05.229Z,20.50
2022-10-11T10:03:39.608Z,20.80
2022-10-11T10:06:17.055Z,21.00
2022-10-11T10:08:48.572Z,21.10
2022-10-11T10:11:19.635Z,21.10
2022-10-11T10:13:51.329Z,21.10
2022-10-11T10:16:24.937Z,21.30
2022-10-11T10:18:56.592Z,21.40
2022-10-11T10:21:28.818Z,21.40
2022-10-11T10:24:00.138Z,21.20
2022-10-11T10:26:30.266Z,20.80
2022-10-11T10:29:18.772Z,20.10
2022-10-11T10:35:01.798Z,19.60
2022-10-11T10:37:34.622Z,19.70
2022-10-11T10:40:09.153Z,20.00
2022-10-11T10:42:38.952Z,20.10
2022-10-11T10:45:20.914Z,20.30
2022-10-11T10:48:12.023Z,20.10
2022-10-11T10:50:51.290Z,19.90
2022-10-11T10:53:28.841Z,19.80
2022-10-11T10:56:10.616Z,19.80
2022-10-11T10:58:55.462Z,19.80
2022-10-11T11:01:28.585Z,19.80
2022-10-11T11:04:02.882Z,19.90
2022-10-11T11:06:38.198Z,19.90
2022-10-11T11:09:23.511Z,19.90
2022-10-11T11:12:01.416Z,19.80
2022-10-11T11:14:41.364Z,19.70
2022-10-11T11:17:20.987Z,19.40
2022-10-11T11:20:04.586Z,19.40
2022-10-11T11:22:45.665Z,19.40
2022-10-11T11:25:26.424Z,19.20
2022-10-11T11:28:18.204Z,19.10
2022-10-11T11:30:56.301Z,18.90
2022-10-11T11:33:35.350Z,18.90
2022-10-11T11:36:07.011Z,18.90
2022-10-11T11:38:44.038Z,18.90
2022-10-11T11:41:16.344Z,18.80
2022-10-11T11:43:58.175Z,18.50
2022-10-11T11:46:31.176Z,18.50
2022-10-11T11:49:12.130Z,18.50
2022-10-11T11:51:45.358Z,18.30
2022-10-11T11:54:23.893Z,18.30
2022-10-11T11:56:59.248Z,18.40
2022-10-11T11:59:35.927Z,18.40
2022-10-11T12:02:25.130Z,18.30
2022-10-11T12:04:54.189Z,18.20
2022-10-11T12:07:24.790Z,18.20
2022-10-11T12:09:55.358Z,18.20
2022-10-11T12:12:30.069Z,18.20
2022-10-11T12:15:20.063Z,18.10
2022-10-11T12:18:14.327Z,18.10
2022-10-11T12:20:44.495Z,18.10
2022-10-11T12:23:42.250Z,18.00
2022-10-11T12:26:38.826Z,17.90
2022-10-11T12:29:39.452Z,17.80
2022-10-11T12:32:51.350Z,17.90
2022-10-11T12:36:08.212Z,17.80
2022-10-11T12:38:40.140Z,17.90
2022-10-11T12:41:55.552Z,17.90
2022-10-11T12:44:26.414Z,17.90
2022-10-11T12:47:24.904Z,17.80
2022-10-11T12:50:12.853Z,17.80
2022-10-11T12:52:55.410Z,17.70
2022-10-11T12:55:36.413Z,17.70
2022-10-11T12:58:26.982Z,17.70
2022-10-11T13:01:19.603Z,17.70
2022-10-11T13:03:59.120Z,17.70
2022-10-11T13:06:30.973Z,17.80
2022-10-11T13:09:04.165Z,17.80
2022-10-11T13:11:37.171Z,17.80
2022-10-11T13:14:11.896Z,17.70
2022-10-11T13:16:52.586Z,17.80
2022-10-11T13:19:24.081Z,17.90
2022-10-11T13:21:55.760Z,18.10
2022-10-11T13:24:25.336Z,18.10
2022-10-11T13:26:58.113Z,18.10
2022-10-11T13:29:33.731Z,18.20
2022-10-11T13:32:03.465Z,18.20
2022-10-11T13:34:35.400Z,18.30
2022-10-11T13:37:03.809Z,18.40
2022-10-11T13:39:36.178Z,18.50
2022-10-11T13:42:11.694Z,18.60
2022-10-11T13:44:40.709Z,18.70
2022-10-11T13:47:12.870Z,18.70
2022-10-11T13:49:45.168Z,18.80
2022-10-11T13:52:22.796Z,18.70
2022-10-11T13:54:59.564Z,18.80
2022-10-11T13:57:38.915Z,18.90
2022-10-11T14:00:25.566Z,18.90
2022-10-11T14:02:57.976Z,18.90
2022-10-11T14:05:31.165Z,18.80
2022-10-11T14:08:01.295Z,18.80
2022-10-11T14:10:30.744Z,18.80
2022-10-11T14:13:21.848Z,18.50
2022-10-11T14:16:01.916Z,18.60
2022-10-11T14:18:48.781Z,18.50
2022-10-11T14:21:36.225Z,18.50
2022-10-11T14:24:06.559Z,18.40
2022-10-11T14:26:37.309Z,18.30
2022-10-11T14:29:10.236Z,18.40
2022-10-11T14:31:41.770Z,18.20
2022-10-11T14:34:17.753Z,18.20
2022-10-11T14:36:45.975Z,18.20
2022-10-11T14:39:17.654Z,18.10
2022-10-11T14:41:46.219Z,18.10
2022-10-11T14:44:17.559Z,18.00
2022-10-11T14:46:47.447Z,18.00
2022-10-11T14:49:17.703Z,17.90
2022-10-11T14:51:48.859Z,17.90
2022-10-11T14:54:19.055Z,17.90
2022-10-11T14:56:47.684Z,17.90
2022-10-11T14:59:18.706Z,17.80
2022-10-11T15:01:51.728Z,17.80
2022-10-11T15:04:26.112Z,17.70
2022-10-11T15:07:01.450Z,17.70
2022-10-11T15:09:30.496Z,17.60
2022-10-11T15:11:59.453Z,17.40
2022-10-11T15:14:37.258Z,17.30
2022-10-11T15:17:05.399Z,17.20
2022-10-11T15:19:33.631Z,17.20
2022-10-11T15:22:04.378Z,17.10
2022-10-11T15:24:32.504Z,16.90
2022-10-11T15:27:00.677Z,16.90
2022-10-11T15:29:30.658Z,16.80
2022-10-11T15:31:58.775Z,16.70
2022-10-11T15:34:28.808Z,16.50
2022-10-11T15:36:57.045Z,16.40
2022-10-11T15:39:28.016Z,16.40
2022-10-11T15:41:56.202Z,16.30
2022-10-11T15:44:24.448Z,16.30
2022-10-11T15:46:59.961Z,16.20
2022-10-11T15:49:28.333Z,16.10
2022-10-11T15:51:56.456Z,16.10
2022-10-11T15:54:24.555Z,16.00
2022-10-11T15:56:53.120Z,15.90
2022-10-11T15:59:21.300Z,15.80
2022-10-11T16:01:49.714Z,15.80
2022-10-11T16:04:19.678Z,15.80
2022-10-11T16:06:48.409Z,15.70
2022-10-11T16:09:16.665Z,15.60
2022-10-11T16:11:45.325Z,15.60
2022-10-11T16:14:13.558Z,15.50
2022-10-11T16:16:41.653Z,15.40
2022-10-11T16:19:11.184Z,15.40
2022-10-11T16:21:40.753Z,15.30
2022-10-11T16:24:09.053Z,15.20
2022-10-11T16:26:37.312Z,15.20
2022-10-11T16:29:05.830Z,15.10
2022-10-11T16:31:34.022Z,15.00
2022-10-11T16:34:02.344Z,14.90
2022-10-11T16:36:36.077Z,14.80
2022-10-11T16:39:15.210Z,14.70
2022-10-11T16:41:44.027Z,14.70
2022-10-11T16:44:14.399Z,14.60
2022-10-11T16:46:43.135Z,14.50
2022-10-11T16:49:11.281Z,14.40
2022-10-11T16:51:39.846Z,14.40
2022-10-11T16:54:10.000Z,14.30
2022-10-11T16:56:40.229Z,14.20
2022-10-11T16:59:09.262Z,14.20
2022-10-11T17:01:38.056Z,14.10
2022-10-11T17:04:09.164Z,14.00
2022-10-11T17:06:37.842Z,13.90
2022-10-11T17:09:06.373Z,13.90
2022-10-11T17:11:36.035Z,13.80
2022-10-11T17:14:05.232Z,13.80
2022-10-11T17:16:33.434Z,13.70
2022-10-11T17:19:02.096Z,13.70
2022-10-11T17:21:30.605Z,13.60
2022-10-11T17:24:06.647Z,13.50
2022-10-11T17:26:36.373Z,13.50
2022-10-11T17:29:04.587Z,13.40
2022-10-11T17:31:32.867Z,13.40
2022-10-11T17:34:01.432Z,13.30
2022-10-11T17:36:32.089Z,13.30
2022-10-11T17:39:02.801Z,13.30
2022-10-11T17:41:32.409Z,13.20
2022-10-11T17:44:03.066Z,13.10
2022-10-11T17:46:32.949Z,13.10
2022-10-11T17:49:02.381Z,13.00
2022-10-11T17:51:30.680Z,13.00
2022-10-11T17:53:59.064Z,13.00
2022-10-11T17:56:31.437Z,13.00
2022-10-11T17:59:03.341Z,12.90
2022-10-11T18:01:31.619Z,12.80
2022-10-11T18:04:01.695Z,12.80
2022-10-11T18:06:33.085Z,12.70
2022-10-11T18:09:05.114Z,12.70
2022-10-11T18:11:33.943Z,12.60
2022-10-11T18:14:04.511Z,12.50
2022-10-11T18:16:33.670Z,12.50
2022-10-11T18:19:04.282Z,12.40
2022-10-11T18:21:34.526Z,12.40
2022-10-11T18:24:04.474Z,12.40
2022-10-11T18:26:33.422Z,12.40
2022-10-11T18:29:03.072Z,12.30
2022-10-11T18:31:34.123Z,12.20
2022-10-11T18:34:02.801Z,12.20
2022-10-11T18:36:32.149Z,12.10
2022-10-11T18:39:02.954Z,12.10
2022-10-11T18:41:32.517Z,12.10
2022-10-11T18:44:05.405Z,12.10
2022-10-11T18:46:34.734Z,12.00
2022-10-11T18:49:03.201Z,12.00
2022-10-11T18:51:33.113Z,11.90
2022-10-11T18:54:02.182Z,11.90
2022-10-11T18:56:31.995Z,11.90
2022-10-11T18:59:00.719Z,11.90
2022-10-11T19:01:32.923Z,11.90
2022-10-11T19:04:02.791Z,11.90
2022-10-11T19:06:33.963Z,11.90
2022-10-11T19:09:05.945Z,11.70
2022-10-11T19:11:39.925Z,11.70
2022-10-11T19:14:11.220Z,11.70
2022-10-11T19:16:42.541Z,11.70
2022-10-11T19:19:13.385Z,11.70
2022-10-11T19:21:41.643Z,11.60
2022-10-11T19:24:10.506Z,11.60
2022-10-11T19:26:41.512Z,11.50
2022-10-11T19:29:11.772Z,11.50
2022-10-11T19:31:44.780Z,11.50
2022-10-11T19:34:13.487Z,11.50
2022-10-11T19:36:42.976Z,11.40
2022-10-11T19:39:13.579Z,11.30
2022-10-11T19:41:42.818Z,11.30
2022-10-11T19:44:11.796Z,11.30
2022-10-11T19:46:55.937Z,11.20
2022-10-11T19:49:26.023Z,11.20
2022-10-11T19:51:55.635Z,11.20
2022-10-11T19:54:25.119Z,11.20
2022-10-11T19:56:53.515Z,11.20
2022-10-11T19:59:22.501Z,11.20
2022-10-11T20:01:53.004Z,11.10
2022-10-11T20:07:12.150Z,11.10
2022-10-11T20:09:40.744Z,11.00
2022-10-11T20:12:09.404Z,11.00
2022-10-11T20:14:37.562Z,11.00
2022-10-11T20:17:05.698Z,10.90
2022-10-11T20:19:33.818Z,10.80
2022-10-11T20:22:02.695Z,10.80
2022-10-11T20:24:34.762Z,10.70
2022-10-11T20:27:05.255Z,10.70
2022-10-11T20:29:33.404Z,10.70
2022-10-11T20:32:01.722Z,10.70
2022-10-11T20:34:30.736Z,10.60
2022-10-11T20:36:59.658Z,10.60
2022-10-11T20:39:28.069Z,10.60
2022-10-11T20:41:57.540Z,10.60
2022-10-11T20:44:28.539Z,10.50
2022-10-11T20:47:00.305Z,10.60
2022-10-11T20:49:31.391Z,10.50
2022-10-11T20:51:59.778Z,10.50
2022-10-11T20:54:29.826Z,10.50
2022-10-11T20:57:00.334Z,10.50
2022-10-11T20:59:29.550Z,10.50
2022-10-11T21:02:00.638Z,10.50
2022-10-11T21:04:28.845Z,10.50
2022-10-11T21:06:56.999Z,10.60
2022-10-11T21:09:25.351Z,10.60
2022-10-11T21:11:54.498Z,10.50
2022-10-11T21:14:24.393Z,10.50
2022-10-11T21:16:52.549Z,10.50
2022-10-11T21:19:21.047Z,10.50
2022-10-11T21:21:53.503Z,10.50
2022-10-11T21:24:22.938Z,10.50
2022-10-11T21:26:51.176Z,10.40
2022-10-11T21:29:19.877Z,10.40
2022-10-11T21:31:49.787Z,10.40
2022-10-11T21:34:18.425Z,10.50
2022-10-11T21:36:46.598Z,10.50
2022-10-11T21:39:16.418Z,10.40
2022-10-11T21:41:44.672Z,10.40
2022-10-11T21:44:12.761Z,10.40
2022-10-11T21:49:30.447Z,10.30
2022-10-11T21:51:58.863Z,10.30
2022-10-11T21:54:27.179Z,10.30
2022-10-11T21:56:55.738Z,10.30
2022-10-11T21:59:23.871Z,10.30
2022-10-11T22:01:53.728Z,10.30
2022-10-11T22:04:25.738Z,10.20
2022-10-11T22:06:56.328Z,10.20
2022-10-11T22:09:25.789Z,10.30
2022-10-11T22:11:54.841Z,10.10
2022-10-11T22:14:27.041Z,10.10
2022-10-11T22:16:55.220Z,10.10
2022-10-11T22:19:23.577Z,10.10
2022-10-11T22:21:51.731Z,10.10
2022-10-11T22:24:31.137Z,10.10
2022-10-11T22:26:59.445Z,10.10
2022-10-11T22:29:33.213Z,10.00
2022-10-11T22:32:02.283Z,9.90
2022-10-11T22:34:32.238Z,9.90
2022-10-11T22:37:00.382Z,9.90
2022-10-11T22:39:30.640Z,9.80
2022-10-11T22:41:59.161Z,9.90
2022-10-11T22:44:27.471Z,9.90
2022-10-11T22:46:55.696Z,9.90
2022-10-11T22:49:23.818Z,9.80
2022-10-11T22:51:52.045Z,9.80
2022-10-11T22:54:20.149Z,9.90
2022-10-11T22:56:50.391Z,9.80
2022-10-11T22:59:18.439Z,9.80
2022-10-11T23:01:48.222Z,9.70
2022-10-11T23:04:17.703Z,9.70
2022-10-11T23:06:45.828Z,9.70
2022-10-11T23:09:14.099Z,9.70
2022-10-11T23:11:42.292Z,9.60
2022-10-11T23:14:12.179Z,9.60
2022-10-11T23:16:40.779Z,9.60
2022-10-11T23:19:08.965Z,9.50
2022-10-11T23:21:37.076Z,9.50
2022-10-11T23:24:05.932Z,9.50
2022-10-11T23:26:34.521Z,9.50
2022-10-11T23:29:02.692Z,9.50
2022-10-11T23:31:32.341Z,9.40
2022-10-11T23:34:00.922Z,9.40
2022-10-11T23:36:29.269Z,9.40
2022-10-11T23:39:00.491Z,9.40
2022-10-11T23:41:30.605Z,9.40
2022-10-11T23:43:59.641Z,9.40
2022-10-11T23:46:27.733Z,9.30
2022-10-11T23:48:57.325Z,9.30
2022-10-11T23:51:25.433Z,9.30
2022-10-11T23:53:54.055Z,9.30
2022-10-11T23:56:22.195Z,9.20
2022-10-11T23:58:50.405Z,9.20
